Time;durP1;ratioP1;P1;durP2;ratioP2;P2;SDS_P1;SDS_P2;PMS_P1;PMS_P2;Temp;Humidity;BMP_temperature;BMP_pressure;BME280_temperature;BME280_humidity;BME280_pressure;Samples;Min_cycle;Max_cycle;Signal;HPM_P1;HPM_P2
2021/12/22 00:00:07;;;;;;;12.60;11.50;;;-2.70;99.90;;;;;;5036273;28;20183;-63
2021/12/22 00:02:34;;;;;;;13.67;12.37;;;-2.70;99.90;;;;;;5031283;28;20256;-63
2021/12/22 00:05:00;;;;;;;12.67;11.63;;;-2.60;99.90;;;;;;5044454;28;20179;-64
2021/12/22 00:07:26;;;;;;;12.23;11.13;;;-2.60;99.90;;;;;;5049966;28;20547;-64
2021/12/22 00:09:51;;;;;;;13.43;12.13;;;-2.60;99.90;;;;;;5031224;28;20199;-61
2021/12/22 00:12:17;;;;;;;14.20;12.50;;;-2.60;99.90;;;;;;5031254;28;20507;-64
2021/12/22 00:14:43;;;;;;;11.87;10.83;;;-2.50;99.90;;;;;;5050313;28;20243;-61
2021/12/22 00:17:08;;;;;;;13.97;12.67;;;-2.50;99.90;;;;;;5042195;28;20254;-63
2021/12/22 00:19:34;;;;;;;16.33;13.63;;;-2.50;99.90;;;;;;5031182;28;20661;-63
2021/12/22 00:22:00;;;;;;;12.67;11.53;;;-2.50;99.90;;;;;;5039339;28;20186;-61
2021/12/22 00:24:25;;;;;;;12.23;11.13;;;-2.50;99.90;;;;;;5051148;28;20183;-61
2021/12/22 00:26:53;;;;;;;16.80;13.07;;;-2.60;99.90;;;;;;5045608;28;20171;-62
2021/12/22 00:29:19;;;;;;;13.67;12.33;;;-2.70;99.90;;;;;;5030978;28;20250;-60
2021/12/22 00:31:57;;;;;;;12.37;11.37;;;-2.70;99.90;;;;;;5034410;28;20187;-64
2021/12/22 00:34:26;;;;;;;14.20;12.63;;;-2.70;99.90;;;;;;5050958;28;20175;-64
2021/12/22 00:36:51;;;;;;;15.90;11.83;;;-2.80;99.90;;;;;;5046707;28;20278;-63
2021/12/22 00:39:17;;;;;;;13.90;12.57;;;-2.80;99.90;;;;;;5030952;28;20179;-61
2021/12/22 00:41:43;;;;;;;12.90;11.90;;;-2.80;99.90;;;;;;5031778;28;20179;-64
2021/12/22 00:44:11;;;;;;;12.30;11.30;;;-2.80;99.90;;;;;;5028440;23;20239;-66
2021/12/22 00:46:36;;;;;;;12.53;11.17;;;-2.90;99.90;;;;;;5011051;28;20505;-66
2021/12/22 00:49:02;;;;;;;15.07;11.10;;;-2.90;99.90;;;;;;5011330;28;20282;-66
2021/12/22 00:51:28;;;;;;;11.97;10.87;;;-2.80;99.90;;;;;;5014750;28;20172;-66
2021/12/22 00:53:54;;;;;;;13.70;12.40;;;-2.80;99.90;;;;;;5013913;28;20250;-66
2021/12/22 00:56:19;;;;;;;12.27;11.20;;;-2.80;99.90;;;;;;5014509;28;20172;-66
2021/12/22 00:58:45;;;;;;;12.50;11.47;;;-2.80;99.90;;;;;;5014253;28;20184;-66
2021/12/22 01:01:11;;;;;;;11.20;10.17;;;-2.80;99.90;;;;;;5014169;28;20172;-66
2021/12/22 01:03:36;;;;;;;12.27;11.07;;;-2.80;99.90;;;;;;5013961;28;20203;-66
2021/12/22 01:06:04;;;;;;;11.27;10.30;;;-2.80;99.90;;;;;;5014377;28;20168;-66
2021/12/22 01:08:29;;;;;;;12.37;10.97;;;-2.80;99.90;;;;;;5013900;28;20180;-66
2021/12/22 01:10:55;;;;;;;11.33;10.53;;;-2.70;99.90;;;;;;5014000;28;20223;-66
2021/12/22 01:13:21;;;;;;;11.80;10.77;;;-2.70;99.90;;;;;;5013779;28;20238;-65
2021/12/22 01:15:47;;;;;;;11.57;10.53;;;-2.70;99.90;;;;;;5014316;28;20586;-66
2021/12/22 01:18:27;;;;;;;11.50;10.47;;;-2.70;99.90;;;;;;5013840;28;20200;-66
2021/12/22 01:21:19;;;;;;;12.00;11.00;;;-2.70;99.90;;;;;;5012931;28;20610;-66
2021/12/22 01:26:34;;;;;;;11.07;10.23;;;-2.60;99.90;;;;;;5002991;28;20215;-66
2021/12/22 01:29:00;;;;;;;11.63;10.73;;;-2.60;99.90;;;;;;5013492;28;20176;-66
2021/12/22 01:31:26;;;;;;;11.03;10.20;;;-2.60;99.90;;;;;;5013697;28;20246;-66
2021/12/22 01:33:52;;;;;;;10.63;9.83;;;-2.60;99.90;;;;;;5013462;28;20571;-66
2021/12/22 01:36:18;;;;;;;11.60;10.50;;;-2.60;99.90;;;;;;5013297;28;20184;-66
2021/12/22 01:38:43;;;;;;;10.50;9.80;;;-2.60;99.90;;;;;;5013704;28;20203;-66
2021/12/22 01:41:09;;;;;;;11.93;10.80;;;-2.50;99.90;;;;;;5013001;28;20192;-66
2021/12/22 01:43:35;;;;;;;10.27;9.67;;;-2.50;99.90;;;;;;5006250;28;20275;-66
2021/12/22 01:51:43;;;;;;;10.60;9.77;;;-2.60;99.90;;;;;;5013743;28;20288;-65
2021/12/22 01:54:21;;;;;;;12.13;10.73;;;-2.60;99.90;;;;;;5012887;28;20200;-66
2021/12/22 01:56:49;;;;;;;10.20;9.60;;;-2.60;99.90;;;;;;5013517;28;20523;-66
2021/12/22 01:59:15;;;;;;;9.80;9.03;;;-2.60;99.90;;;;;;5013072;28;20184;-66
2021/12/22 02:01:41;;;;;;;10.30;9.60;;;-2.70;99.90;;;;;;5013439;28;20261;-65
2021/12/22 02:04:10;;;;;;;11.03;10.23;;;-2.60;99.90;;;;;;5012774;28;20232;-67
2021/12/22 02:06:38;;;;;;;10.33;9.57;;;-2.60;99.90;;;;;;5013450;28;20516;-66
2021/12/22 02:09:04;;;;;;;11.73;10.73;;;-2.60;99.90;;;;;;5011312;28;20180;-66
2021/12/22 02:11:30;;;;;;;11.10;10.30;;;-2.60;99.90;;;;;;5013300;28;20180;-66
2021/12/22 02:14:02;;;;;;;10.30;9.40;;;-2.60;99.90;;;;;;5012624;28;20627;-66
2021/12/22 02:16:32;;;;;;;10.83;10.13;;;-2.60;99.90;;;;;;5013191;28;20168;-66
2021/12/22 02:18:59;;;;;;;10.00;9.20;;;-2.60;99.90;;;;;;5012638;28;20642;-66
2021/12/22 02:21:29;;;;;;;10.60;9.73;;;-2.60;99.90;;;;;;5013135;28;20529;-66
2021/12/22 02:23:55;;;;;;;11.80;10.70;;;-2.70;99.90;;;;;;5012442;28;20273;-65
2021/12/22 02:26:28;;;;;;;10.53;9.73;;;-2.60;99.90;;;;;;5012849;28;20710;-66
2021/12/22 02:29:01;;;;;;;9.10;8.60;;;-2.70;99.90;;;;;;5012692;28;20680;-65
2021/12/22 02:31:27;;;;;;;9.97;9.27;;;-2.70;99.90;;;;;;5012731;28;20183;-66
2021/12/22 02:33:54;;;;;;;11.53;10.60;;;-2.70;99.90;;;;;;5012253;28;20215;-65
2021/12/22 02:36:26;;;;;;;11.20;9.23;;;-2.70;99.90;;;;;;5012670;28;20579;-66
2021/12/22 02:38:55;;;;;;;12.63;10.80;;;-2.80;99.90;;;;;;5012396;28;20222;-66
2021/12/22 02:41:28;;;;;;;10.70;9.93;;;-2.70;99.90;;;;;;5012646;28;20168;-66
2021/12/22 02:43:56;;;;;;;12.47;11.47;;;-2.70;99.90;;;;;;5011979;28;20719;-66
2021/12/22 02:46:31;;;;;;;11.67;10.57;;;-2.70;99.90;;;;;;5012444;28;20537;-66
2021/12/22 02:48:59;;;;;;;11.80;10.77;;;-2.70;99.90;;;;;;5010518;28;20203;-66
2021/12/22 02:51:29;;;;;;;11.17;9.97;;;-2.70;99.90;;;;;;5012547;28;20278;-65
2021/12/22 02:54:18;;;;;;;11.93;10.93;;;-2.70;99.90;;;;;;5011985;28;20211;-65
2021/12/22 03:04:24;;;;;;;12.20;10.50;;;-2.70;99.90;;;;;;5012153;28;20203;-66
2021/12/22 03:06:56;;;;;;;10.80;10.00;;;-2.70;99.90;;;;;;5010978;28;20186;-65
2021/12/22 03:09:33;;;;;;;12.93;12.03;;;-2.70;99.90;;;;;;5011535;28;20230;-66
2021/12/22 03:12:02;;;;;;;13.70;10.00;;;-2.80;99.90;;;;;;5011090;28;20179;-66
2021/12/22 03:14:28;;;;;;;12.40;11.40;;;-2.80;99.90;;;;;;5011883;28;20222;-66
2021/12/22 03:16:55;;;;;;;12.20;10.87;;;-2.80;99.90;;;;;;5011995;28;20354;-66
2021/12/22 03:19:25;;;;;;;11.73;10.83;;;-2.80;99.90;;;;;;5011761;28;20188;-66
2021/12/22 03:21:58;;;;;;;11.43;10.30;;;-2.80;99.90;;;;;;5012114;28;20187;-66
2021/12/22 03:24:24;;;;;;;12.27;11.17;;;-2.80;99.90;;;;;;5011926;28;20660;-66
2021/12/22 03:26:49;;;;;;;12.10;11.03;;;-2.90;99.90;;;;;;5010455;28;20199;-65
2021/12/22 03:29:17;;;;;;;12.30;11.47;;;-2.90;99.90;;;;;;5011286;28;20200;-66
2021/12/22 03:31:44;;;;;;;11.07;9.90;;;-2.90;99.90;;;;;;5011977;28;20177;-66
2021/12/22 03:34:10;;;;;;;11.47;10.67;;;-2.90;99.90;;;;;;5010979;28;20298;-66
2021/12/22 03:36:37;;;;;;;12.13;11.23;;;-2.90;99.90;;;;;;5012313;28;20234;-66
2021/12/22 03:39:05;;;;;;;11.43;10.73;;;-3.00;99.90;;;;;;5011332;28;20172;-66
2021/12/22 03:41:32;;;;;;;11.73;10.63;;;-3.00;99.90;;;;;;5011923;28;20200;-65
2021/12/22 03:43:57;;;;;;;11.47;10.57;;;-3.00;99.90;;;;;;5010974;28;20218;-66
2021/12/22 03:46:24;;;;;;;15.47;10.27;;;-3.10;99.90;;;;;;5011571;28;20172;-66
2021/12/22 03:48:50;;;;;;;12.63;9.60;;;-3.10;99.90;;;;;;5011645;28;20175;-66
2021/12/22 03:51:15;;;;;;;11.80;10.90;;;-3.10;99.90;;;;;;5011616;28;20176;-66
2021/12/22 03:53:41;;;;;;;11.83;10.83;;;-3.10;99.90;;;;;;5009832;28;20196;-66
2021/12/22 03:56:06;;;;;;;10.93;10.23;;;-3.10;99.90;;;;;;5011669;28;20633;-66
2021/12/22 03:58:32;;;;;;;10.47;9.67;;;-3.10;99.90;;;;;;5011619;28;20657;-66
2021/12/22 04:00:58;;;;;;;10.80;10.00;;;-3.10;99.90;;;;;;5011451;28;20168;-66
2021/12/22 04:03:28;;;;;;;12.50;11.50;;;-3.00;99.90;;;;;;5010914;28;20200;-66
2021/12/22 04:05:54;;;;;;;12.80;11.73;;;-3.10;99.90;;;;;;5011625;28;20168;-66
2021/12/22 04:08:20;;;;;;;10.90;10.23;;;-3.00;99.90;;;;;;5009751;28;20553;-66
2021/12/22 04:10:47;;;;;;;11.13;10.23;;;-3.10;99.90;;;;;;5010043;28;20236;-66
2021/12/22 04:13:13;;;;;;;11.13;10.13;;;-3.10;99.90;;;;;;5010751;28;20196;-66
2021/12/22 04:15:39;;;;;;;11.63;10.77;;;-3.10;99.90;;;;;;5011645;28;20248;-66
2021/12/22 04:18:05;;;;;;;12.57;10.23;;;-3.10;99.90;;;;;;5009936;28;20176;-65
2021/12/22 04:20:31;;;;;;;12.30;11.30;;;-3.10;99.90;;;;;;5011569;28;20570;-66
2021/12/22 04:22:58;;;;;;;13.30;12.30;;;-3.10;99.90;;;;;;5009945;28;20215;-66
2021/12/22 04:25:23;;;;;;;10.73;10.10;;;-3.20;99.90;;;;;;5014350;28;20590;-66
2021/12/22 04:27:52;;;;;;;13.10;11.90;;;-3.20;99.90;;;;;;5015045;28;20172;-66
2021/12/22 04:30:18;;;;;;;12.10;11.17;;;-3.20;99.90;;;;;;5015030;28;20199;-66
2021/12/22 04:32:44;;;;;;;12.63;11.33;;;-3.30;99.90;;;;;;5014596;28;20204;-66
2021/12/22 04:35:10;;;;;;;11.97;11.03;;;-3.30;99.90;;;;;;5014897;28;20188;-67
2021/12/22 04:37:35;;;;;;;12.00;11.07;;;-3.30;99.90;;;;;;5014834;28;20179;-66
2021/12/22 04:40:01;;;;;;;12.93;11.73;;;-3.40;99.90;;;;;;5015170;28;20179;-66
2021/12/22 04:42:27;;;;;;;11.97;10.90;;;-3.40;99.90;;;;;;5014230;28;20642;-66
2021/12/22 04:44:56;;;;;;;13.37;11.70;;;-3.50;99.90;;;;;;5014847;28;20172;-66
2021/12/22 04:47:21;;;;;;;11.67;10.50;;;-3.60;99.90;;;;;;5013673;28;20179;-66
2021/12/22 04:49:47;;;;;;;12.63;11.27;;;-3.60;99.90;;;;;;5014653;28;20566;-66
2021/12/22 04:52:19;;;;;;;11.50;10.60;;;-3.60;99.90;;;;;;5014025;28;20176;-66
2021/12/22 04:55:01;;;;;;;11.50;10.60;;;-3.60;99.90;;;;;;5013635;28;20179;-66
2021/12/22 04:57:27;;;;;;;12.33;11.27;;;-3.60;99.90;;;;;;5014455;28;20176;-66
2021/12/22 04:59:53;;;;;;;13.43;11.30;;;-3.60;99.90;;;;;;5014654;28;20654;-66
2021/12/22 05:02:18;;;;;;;12.73;11.63;;;-3.60;99.90;;;;;;5012342;28;20208;-66
2021/12/22 05:04:44;;;;;;;15.77;12.33;;;-3.70;99.90;;;;;;5014524;28;20266;-66
2021/12/22 05:07:09;;;;;;;12.73;11.53;;;-3.70;99.90;;;;;;5014210;28;20188;-66
2021/12/22 05:09:35;;;;;;;12.43;11.37;;;-3.70;99.90;;;;;;5014507;28;20195;-66
2021/12/22 05:12:00;;;;;;;13.53;12.40;;;-3.70;99.90;;;;;;5013913;28;20596;-65
2021/12/22 05:14:26;;;;;;;11.60;10.87;;;-3.70;99.90;;;;;;5014345;28;20176;-66
2021/12/22 05:16:58;;;;;;;11.80;11.00;;;-3.80;99.90;;;;;;5014181;28;20447;-66
2021/12/22 05:19:24;;;;;;;14.20;11.77;;;-3.80;99.90;;;;;;5014531;28;20642;-66
2021/12/22 05:21:49;;;;;;;11.47;10.67;;;-3.80;99.90;;;;;;5014285;28;20230;-66
2021/12/22 05:24:15;;;;;;;11.90;10.73;;;-3.70;99.90;;;;;;5013866;28;20192;-66
2021/12/22 05:26:41;;;;;;;11.53;10.80;;;-3.70;99.90;;;;;;5013898;28;20188;-66
2021/12/22 05:29:07;;;;;;;11.43;10.57;;;-3.60;99.90;;;;;;5013723;28;20241;-66
2021/12/22 05:31:33;;;;;;;10.23;9.67;;;-3.50;99.90;;;;;;5013613;28;20520;-65
2021/12/22 05:33:58;;;;;;;12.40;11.27;;;-3.40;99.90;;;;;;5013309;28;20204;-66
2021/12/22 05:36:24;;;;;;;11.70;10.70;;;-3.30;99.90;;;;;;5013425;28;20168;-66
2021/12/22 05:38:50;;;;;;;10.83;10.13;;;-3.30;99.90;;;;;;5013617;28;20212;-66
2021/12/22 05:41:15;;;;;;;10.47;9.77;;;-3.20;99.90;;;;;;5013620;28;20180;-65
2021/12/22 05:43:41;;;;;;;11.23;10.27;;;-3.20;99.90;;;;;;5012909;28;20255;-66
2021/12/22 05:46:07;;;;;;;12.10;11.10;;;-3.10;99.90;;;;;;5012286;28;20180;-66
2021/12/22 05:48:32;;;;;;;11.67;10.80;;;-3.10;99.90;;;;;;5013643;28;20173;-66
2021/12/22 05:51:00;;;;;;;11.23;10.40;;;-3.00;99.90;;;;;;5013138;28;20712;-65
2021/12/22 05:53:27;;;;;;;22.63;11.43;;;-3.00;99.90;;;;;;5013691;28;20311;-65
2021/12/22 05:55:53;;;;;;;11.60;10.83;;;-3.00;99.90;;;;;;5013800;28;20172;-66
2021/12/22 05:58:19;;;;;;;11.40;10.20;;;-3.00;99.90;;;;;;5013301;28;20310;-66
2021/12/22 06:00:45;;;;;;;11.93;11.10;;;-3.00;99.90;;;;;;5013312;28;20652;-66
2021/12/22 06:03:11;;;;;;;11.53;10.73;;;-3.00;99.90;;;;;;5012853;28;20243;-66
2021/12/22 06:05:37;;;;;;;11.37;10.37;;;-3.00;99.90;;;;;;5013117;28;20299;-66
2021/12/22 06:08:04;;;;;;;12.23;11.23;;;-3.10;99.90;;;;;;5013241;28;20168;-66
2021/12/22 06:10:30;;;;;;;13.53;11.17;;;-3.00;99.90;;;;;;5013032;28;20208;-65
2021/12/22 06:12:56;;;;;;;12.07;10.67;;;-3.00;99.90;;;;;;5011566;28;20196;-65
2021/12/22 06:15:22;;;;;;;11.23;10.47;;;-3.00;99.90;;;;;;5011624;28;20211;-67
2021/12/22 06:17:53;;;;;;;11.67;10.80;;;-3.00;99.90;;;;;;5013295;28;20200;-65
2021/12/22 06:20:19;;;;;;;10.30;9.43;;;-3.00;99.90;;;;;;5012965;28;20176;-67
2021/12/22 06:22:44;;;;;;;11.47;10.37;;;-3.00;99.90;;;;;;5012762;28;20192;-66
2021/12/22 06:25:11;;;;;;;11.00;10.00;;;-2.90;99.90;;;;;;5013560;28;20187;-65
2021/12/22 06:27:37;;;;;;;11.57;10.50;;;-2.90;99.90;;;;;;5012861;28;20176;-66
2021/12/22 06:30:03;;;;;;;10.23;9.60;;;-2.90;99.90;;;;;;5013051;28;20549;-66
2021/12/22 06:32:29;;;;;;;12.03;10.60;;;-2.90;99.90;;;;;;5012178;28;20203;-66
2021/12/22 06:34:54;;;;;;;11.80;10.53;;;-2.90;99.90;;;;;;5012964;28;20168;-67
2021/12/22 06:37:20;;;;;;;13.40;11.50;;;-2.90;99.90;;;;;;5012608;28;20234;-66
2021/12/22 06:39:45;;;;;;;11.33;10.33;;;-2.90;99.90;;;;;;5012881;28;20184;-66
2021/12/22 06:42:11;;;;;;;12.20;11.10;;;-2.90;99.90;;;;;;5012000;28;20187;-66
2021/12/22 06:44:37;;;;;;;12.47;10.67;;;-2.90;99.90;;;;;;5013115;28;20183;-65
2021/12/22 06:47:03;;;;;;;15.03;11.80;;;-2.90;99.90;;;;;;5011596;28;20274;-66
2021/12/22 06:49:28;;;;;;;11.30;10.13;;;-2.90;99.90;;;;;;5012275;28;20207;-65
2021/12/22 06:51:54;;;;;;;10.73;9.93;;;-2.90;99.90;;;;;;5012456;28;20169;-65
2021/12/22 06:54:20;;;;;;;12.33;11.27;;;-3.00;99.90;;;;;;5011320;28;20195;-66
2021/12/22 06:56:45;;;;;;;11.97;11.00;;;-3.00;99.90;;;;;;5008281;28;20176;-66
2021/12/22 06:59:13;;;;;;;11.77;10.83;;;-2.90;99.90;;;;;;5012356;28;20176;-67
2021/12/22 07:01:39;;;;;;;11.93;10.87;;;-2.90;99.90;;;;;;5012265;28;20168;-65
2021/12/22 07:04:05;;;;;;;12.40;11.30;;;-2.90;99.90;;;;;;5012050;28;20243;-66
2021/12/22 07:06:30;;;;;;;14.73;10.80;;;-2.90;99.90;;;;;;5012428;28;20169;-67
2021/12/22 07:08:57;;;;;;;19.20;11.43;;;-2.90;99.90;;;;;;5011009;28;20176;-66
2021/12/22 07:11:23;;;;;;;13.40;12.17;;;-2.90;99.90;;;;;;5011840;28;20168;-66
2021/12/22 07:13:48;;;;;;;10.20;9.40;;;-2.90;99.90;;;;;;5011950;28;20267;-65
2021/12/22 07:16:14;;;;;;;12.07;10.77;;;-2.80;99.90;;;;;;5012371;28;20785;-67
2021/12/22 07:18:40;;;;;;;12.73;11.50;;;-2.80;99.90;;;;;;5011901;28;20180;-64
2021/12/22 07:21:06;;;;;;;11.87;10.97;;;-2.80;99.90;;;;;;5011719;28;20222;-65
2021/12/22 07:23:31;;;;;;;13.17;11.47;;;-2.80;99.90;;;;;;5011530;28;20195;-67
2021/12/22 07:25:57;;;;;;;16.47;11.67;;;-2.80;99.90;;;;;;5012286;28;20669;-66
2021/12/22 07:28:22;;;;;;;11.47;10.43;;;-2.70;99.90;;;;;;5002570;28;20180;-66
2021/12/22 07:30:48;;;;;;;14.60;10.63;;;-2.70;99.90;;;;;;5010391;28;20211;-70
2021/12/22 07:33:14;;;;;;;10.93;10.13;;;-2.70;99.90;;;;;;5011583;28;20275;-70
2021/12/22 07:35:58;;;;;;;14.43;11.40;;;-2.70;99.90;;;;;;5011908;28;20164;-66
2021/12/22 07:38:59;;;;;;;13.27;12.17;;;-2.70;99.90;;;;;;5011581;28;20190;-66
2021/12/22 07:41:26;;;;;;;14.53;10.93;;;-2.70;99.90;;;;;;5011734;28;20171;-65
2021/12/22 07:43:51;;;;;;;11.93;11.03;;;-2.70;99.90;;;;;;5011102;28;20211;-66
2021/12/22 07:46:17;;;;;;;17.37;13.47;;;-2.70;99.90;;;;;;5011494;28;20318;-67
2021/12/22 07:48:43;;;;;;;13.27;12.17;;;-2.70;99.90;;;;;;5012041;28;20638;-66
2021/12/22 07:51:09;;;;;;;13.47;12.07;;;-2.60;99.90;;;;;;5011258;28;20669;-66
2021/12/22 07:53:34;;;;;;;13.17;12.07;;;-2.60;99.90;;;;;;5011317;28;20287;-66
2021/12/22 07:56:00;;;;;;;13.43;12.33;;;-2.60;99.90;;;;;;5011274;28;20185;-66
2021/12/22 07:58:27;;;;;;;18.13;13.17;;;-2.60;99.90;;;;;;5013009;28;20179;-66
2021/12/22 08:00:54;;;;;;;12.87;11.87;;;-2.50;99.90;;;;;;5015348;28;20267;-66
2021/12/22 08:03:20;;;;;;;13.43;12.07;;;-2.50;99.90;;;;;;5013785;28;20291;-67
2021/12/22 08:05:45;;;;;;;12.27;11.27;;;-2.50;99.90;;;;;;5015383;28;20721;-67
2021/12/22 08:08:11;;;;;;;13.60;12.00;;;-2.40;99.90;;;;;;5014202;28;20289;-67
2021/12/22 08:10:37;;;;;;;13.37;12.23;;;-2.40;99.90;;;;;;5015288;28;20664;-67
2021/12/22 08:13:03;;;;;;;14.10;13.10;;;-2.40;99.90;;;;;;5015040;28;20199;-65
2021/12/22 08:15:29;;;;;;;14.47;12.93;;;-2.30;99.90;;;;;;5015285;28;20180;-65
2021/12/22 08:17:55;;;;;;;13.57;12.37;;;-2.30;99.90;;;;;;5015545;28;20178;-65
2021/12/22 08:20:22;;;;;;;13.30;11.93;;;-2.30;99.90;;;;;;5015200;28;20219;-66
2021/12/22 08:22:48;;;;;;;12.77;11.73;;;-2.30;99.90;;;;;;5014992;28;20719;-66
2021/12/22 08:25:13;;;;;;;11.53;10.57;;;-2.20;99.90;;;;;;5014850;28;20246;-65
2021/12/22 08:27:39;;;;;;;12.37;11.30;;;-2.20;99.90;;;;;;5015272;28;20668;-66
2021/12/22 08:30:07;;;;;;;12.07;11.07;;;-2.20;99.90;;;;;;5015135;28;20672;-66
2021/12/22 08:32:33;;;;;;;13.37;12.17;;;-2.20;99.90;;;;;;5014843;28;20585;-65
2021/12/22 08:35:02;;;;;;;15.30;11.87;;;-2.20;99.90;;;;;;5014813;28;20736;-66
2021/12/22 08:40:14;;;;;;;14.77;11.13;;;-2.00;99.90;;;;;;5014889;28;20263;-66
2021/12/22 08:42:41;;;;;;;12.87;11.77;;;-2.00;99.90;;;;;;5014538;28;20231;-67
2021/12/22 08:45:07;;;;;;;12.63;11.60;;;-1.90;99.90;;;;;;5014491;28;20176;-66
2021/12/22 08:47:32;;;;;;;15.67;14.07;;;-1.80;99.90;;;;;;4995300;28;20545;-66
2021/12/22 08:49:58;;;;;;;13.37;11.97;;;-1.80;99.90;;;;;;5005435;28;20196;-65
2021/12/22 08:52:24;;;;;;;14.17;12.77;;;-1.60;99.90;;;;;;5014421;28;20242;-67
2021/12/22 08:54:49;;;;;;;14.70;12.27;;;-1.60;99.90;;;;;;5014495;28;20176;-66
2021/12/22 08:57:16;;;;;;;13.30;12.13;;;-1.40;99.90;;;;;;5014455;28;20165;-65
2021/12/22 08:59:42;;;;;;;13.63;12.23;;;-1.30;99.90;;;;;;5014734;28;20585;-65
2021/12/22 09:02:08;;;;;;;13.73;12.37;;;-1.20;99.90;;;;;;5013487;28;20262;-66
2021/12/22 09:04:34;;;;;;;14.87;13.03;;;-0.90;99.90;;;;;;5014166;28;20180;-67
2021/12/22 09:06:59;;;;;;;13.07;11.93;;;-0.60;99.90;;;;;;5014417;28;20180;-67
2021/12/22 09:09:25;;;;;;;16.13;12.53;;;-0.30;99.90;;;;;;5013746;28;20286;-65
2021/12/22 09:11:51;;;;;;;15.73;13.60;;;0.00;99.90;;;;;;5014114;28;20169;-67
2021/12/22 09:14:18;;;;;;;12.67;11.67;;;0.10;99.90;;;;;;5013900;28;20196;-67
2021/12/22 09:16:44;;;;;;;12.87;11.93;;;0.20;99.90;;;;;;5014325;28;20179;-65
2021/12/22 09:19:10;;;;;;;17.23;12.67;;;0.30;99.90;;;;;;5012610;28;20642;-67
2021/12/22 09:21:36;;;;;;;13.37;12.10;;;0.40;99.90;;;;;;5013942;28;20203;-67
2021/12/22 09:24:03;;;;;;;14.93;13.63;;;0.50;99.90;;;;;;5013732;28;20235;-67
2021/12/22 09:26:29;;;;;;;14.30;12.97;;;0.70;99.90;;;;;;5013903;28;20235;-66
2021/12/22 09:28:55;;;;;;;13.50;12.20;;;0.80;99.90;;;;;;5012428;28;20172;-66
2021/12/22 09:31:22;;;;;;;14.00;12.70;;;0.90;99.90;;;;;;5013686;28;20295;-66
2021/12/22 09:33:47;;;;;;;14.73;12.90;;;0.90;99.90;;;;;;5013485;28;20200;-66
2021/12/22 09:36:14;;;;;;;14.67;13.10;;;0.90;99.90;;;;;;5013891;28;20234;-67
2021/12/22 09:38:41;;;;;;;13.83;12.37;;;1.10;99.90;;;;;;5013402;28;20543;-66
2021/12/22 09:41:08;;;;;;;14.70;13.17;;;1.30;99.90;;;;;;5012291;28;20275;-66
2021/12/22 09:43:33;;;;;;;14.10;12.80;;;1.40;99.90;;;;;;5013250;28;20220;-66
2021/12/22 09:46:06;;;;;;;14.17;12.67;;;1.60;99.90;;;;;;5013425;28;20168;-66
2021/12/22 09:53:27;;;;;;;16.33;13.30;;;1.80;99.90;;;;;;5013446;28;20200;-66
2021/12/22 09:55:54;;;;;;;16.07;14.03;;;2.00;99.90;;;;;;5013741;28;20206;-66
2021/12/22 09:58:19;;;;;;;15.27;13.20;;;2.20;99.90;;;;;;5013323;28;20172;-66
2021/12/22 10:00:47;;;;;;;16.53;13.13;;;2.30;99.90;;;;;;5013359;28;20188;-66
2021/12/22 10:03:13;;;;;;;13.03;11.83;;;2.40;99.90;;;;;;5012338;28;20196;-66
2021/12/22 10:05:40;;;;;;;16.83;13.83;;;2.50;99.90;;;;;;5013350;28;20645;-66
2021/12/22 10:08:11;;;;;;;15.33;14.03;;;2.40;99.90;;;;;;5013571;28;20599;-67
2021/12/22 10:10:43;;;;;;;16.77;15.20;;;2.40;99.90;;;;;;5013156;28;20207;-67
2021/12/22 10:13:17;;;;;;;13.27;12.07;;;2.40;99.90;;;;;;5012738;28;20199;-65
2021/12/22 10:15:44;;;;;;;13.30;11.90;;;2.40;99.90;;;;;;5012990;28;20175;-67
2021/12/22 10:18:11;;;;;;;13.23;11.97;;;2.50;99.90;;;;;;5012972;28;20172;-66
2021/12/22 10:20:38;;;;;;;15.60;14.10;;;2.70;99.90;;;;;;5013403;28;20260;-66
2021/12/22 10:23:25;;;;;;;14.57;12.60;;;2.80;99.90;;;;;;5011431;28;20188;-66
2021/12/22 10:26:02;;;;;;;12.80;11.20;;;2.90;99.90;;;;;;5013014;28;20176;-65
2021/12/22 10:28:30;;;;;;;12.53;11.43;;;3.00;99.90;;;;;;5012234;28;20176;-66
2021/12/22 10:31:01;;;;;;;12.90;11.83;;;3.10;99.90;;;;;;5012527;28;20222;-66
2021/12/22 10:33:29;;;;;;;13.57;12.57;;;3.10;99.90;;;;;;5011798;28;20200;-66
2021/12/22 10:36:03;;;;;;;11.13;10.23;;;3.10;99.90;;;;;;5012751;28;20260;-66
2021/12/22 10:38:31;;;;;;;12.20;11.00;;;3.00;99.90;;;;;;5012475;28;20222;-64
2021/12/22 10:41:06;;;;;;;14.40;12.40;;;2.90;99.90;;;;;;5010425;28;20655;-66
2021/12/22 10:43:34;;;;;;;12.97;11.97;;;2.80;99.90;;;;;;5011933;28;20689;-67
2021/12/22 10:46:04;;;;;;;12.60;11.30;;;3.00;99.90;;;;;;5011871;28;20195;-67
2021/12/22 10:51:32;;;;;;;13.30;11.33;;;3.10;99.90;;;;;;5011244;28;20211;-67
2021/12/22 10:54:00;;;;;;;12.70;11.50;;;3.10;99.90;;;;;;5012037;28;20195;-67
2021/12/22 10:56:32;;;;;;;11.27;10.43;;;3.10;99.90;;;;;;5012443;28;20188;-67
2021/12/22 10:59:06;;;;;;;12.87;11.73;;;3.20;99.90;;;;;;5012346;28;20172;-66
2021/12/22 11:01:35;;;;;;;11.90;11.00;;;3.30;99.90;;;;;;5012167;28;20255;-65
2021/12/22 11:04:06;;;;;;;12.67;11.57;;;3.00;99.90;;;;;;5012090;28;20204;-66
2021/12/22 11:06:34;;;;;;;13.73;12.63;;;2.80;99.90;;;;;;5010758;28;20658;-66
2021/12/22 11:09:10;;;;;;;14.37;13.23;;;2.60;99.90;;;;;;5012180;28;20263;-65
2021/12/22 11:11:42;;;;;;;13.83;12.70;;;2.50;99.90;;;;;;5010437;28;20665;-66
2021/12/22 11:14:16;;;;;;;12.97;11.80;;;2.60;99.90;;;;;;5011629;28;20188;-66
2021/12/22 11:16:57;;;;;;;13.57;12.43;;;2.70;99.90;;;;;;5012184;28;20168;-65
2021/12/22 11:19:25;;;;;;;14.47;13.00;;;2.80;99.90;;;;;;5012105;28;20234;-67
2021/12/22 11:22:09;;;;;;;13.27;11.57;;;3.00;99.90;;;;;;5012343;28;20539;-65
2021/12/22 11:24:41;;;;;;;12.33;11.33;;;3.20;99.90;;;;;;5012155;28;20257;-66
2021/12/22 11:27:08;;;;;;;12.63;11.33;;;3.30;99.90;;;;;;5011820;28;20303;-66
2021/12/22 11:29:36;;;;;;;11.80;10.77;;;3.40;99.90;;;;;;5011739;28;20540;-65
2021/12/22 11:32:05;;;;;;;11.30;10.40;;;3.40;99.90;;;;;;5009831;28;20649;-65
2021/12/22 11:34:34;;;;;;;12.27;11.23;;;3.40;99.90;;;;;;5011557;28;20172;-67
2021/12/22 11:37:02;;;;;;;12.23;11.33;;;3.30;99.90;;;;;;5011486;28;20167;-66
2021/12/22 11:39:29;;;;;;;13.40;12.20;;;3.30;99.90;;;;;;5011684;28;20254;-67
2021/12/22 11:41:57;;;;;;;12.87;11.70;;;3.30;99.90;;;;;;5010223;28;20173;-66
2021/12/22 11:44:25;;;;;;;11.63;10.63;;;3.40;99.90;;;;;;5011649;28;20616;-65
2021/12/22 11:46:58;;;;;;;12.03;10.83;;;3.50;99.90;;;;;;5011506;28;20203;-66
2021/12/22 11:49:25;;;;;;;10.47;9.57;;;3.50;99.90;;;;;;5011303;28;20183;-66
2021/12/22 11:51:51;;;;;;;11.47;10.43;;;3.60;99.90;;;;;;5010760;28;20176;-65
2021/12/22 11:54:24;;;;;;;12.00;10.90;;;3.50;99.90;;;;;;5011366;28;20196;-66
2021/12/22 11:56:51;;;;;;;10.60;9.70;;;3.40;99.90;;;;;;5011746;28;20610;-65
2021/12/22 11:59:31;;;;;;;12.07;11.07;;;3.30;99.90;;;;;;5011364;28;20601;-65
2021/12/22 12:02:16;;;;;;;11.40;10.43;;;3.20;99.90;;;;;;5009944;28;20180;-65
2021/12/22 12:04:42;;;;;;;11.37;10.47;;;3.30;99.90;;;;;;5011712;28;20230;-67
2021/12/22 12:07:07;;;;;;;12.03;10.80;;;3.40;99.90;;;;;;5011171;28;20184;-65
2021/12/22 12:09:33;;;;;;;12.37;11.17;;;3.50;99.90;;;;;;5010027;28;20243;-65
2021/12/22 12:12:04;;;;;;;10.97;9.97;;;3.50;99.90;;;;;;5011043;28;20656;-65
2021/12/22 12:15:21;;;;;;;10.73;9.70;;;3.60;99.90;;;;;;5011391;28;20168;-64
2021/12/22 12:23:23;;;;;;;11.73;10.83;;;4.10;99.90;;;;;;4991474;28;20203;-67
2021/12/22 12:25:49;;;;;;;10.30;9.50;;;4.40;99.90;;;;;;5002541;28;20172;-66
2021/12/22 12:28:19;;;;;;;10.27;9.37;;;4.60;99.90;;;;;;5011054;28;20180;-66
2021/12/22 12:30:51;;;;;;;11.03;10.13;;;4.70;99.90;;;;;;5001733;28;20602;-66
2021/12/22 12:33:44;;;;;;;11.63;10.63;;;4.60;99.90;;;;;;5010716;28;20188;-65
2021/12/22 12:36:13;;;;;;;11.87;10.77;;;4.40;99.90;;;;;;5010897;28;20187;-65
2021/12/22 12:38:42;;;;;;;12.93;10.50;;;4.30;99.90;;;;;;5011227;28;20171;-66
2021/12/22 12:41:12;;;;;;;10.80;9.80;;;4.30;99.90;;;;;;5010665;28;20574;-67
2021/12/22 12:43:48;;;;;;;10.53;9.73;;;4.40;99.90;;;;;;5011392;28;20588;-66
2021/12/22 12:49:14;;;;;;;10.97;10.00;;;4.50;99.90;;;;;;5010042;28;20180;-66
2021/12/22 12:51:44;;;;;;;10.97;10.03;;;4.40;99.90;;;;;;5014593;28;20239;-66
2021/12/22 12:54:16;;;;;;;11.60;10.33;;;4.30;99.90;;;;;;5014089;28;20654;-66
2021/12/22 12:56:49;;;;;;;10.93;10.03;;;4.20;99.90;;;;;;5013100;28;20267;-66
2021/12/22 12:59:25;;;;;;;11.03;10.13;;;4.20;99.90;;;;;;5013479;28;20638;-67
2021/12/22 13:01:50;;;;;;;12.30;11.10;;;4.20;99.90;;;;;;5014761;28;20168;-66
2021/12/22 13:04:20;;;;;;;11.43;10.33;;;4.10;99.90;;;;;;5013805;28;20207;-66
2021/12/22 13:06:47;;;;;;;10.27;9.47;;;4.10;99.90;;;;;;5014201;28;20181;-66
2021/12/22 13:09:24;;;;;;;11.10;10.10;;;4.00;99.90;;;;;;5013774;28;20258;-66